sensor_id;sensor_type;location;lat;lon;timestamp;pressure;altitude;pressure_sealevel;temperature;humidity
33949;BME280;20229;49.856;19.030;2023-03-04T00:03:38;101758.97;;;0.77;84.56
33949;BME280;20229;49.856;19.030;2023-03-04T00:08:52;101768.83;;;0.79;84.56
33949;BME280;20229;49.856;19.030;2023-03-04T00:14:06;101762.56;;;0.79;84.63
33949;BME280;20229;49.856;19.030;2023-03-04T00:19:20;101746.42;;;0.80;84.49
33949;BME280;20229;49.856;19.030;2023-03-04T00:24:33;101750.89;;;0.81;84.17
33949;BME280;20229;49.856;19.030;2023-03-04T00:29:47;101743.74;;;0.83;84.24
33949;BME280;20229;49.856;19.030;2023-03-04T00:35:01;101731.21;;;0.82;84.39
33949;BME280;20229;49.856;19.030;2023-03-04T00:40:15;101729.39;;;0.84;84.04
33949;BME280;20229;49.856;19.030;2023-03-04T00:45:29;101716.87;;;0.83;83.95
33949;BME280;20229;49.856;19.030;2023-03-04T00:50:43;101707.91;;;0.83;83.82
33949;BME280;20229;49.856;19.030;2023-03-04T00:55:57;101687.31;;;0.82;83.82
33949;BME280;20229;49.856;19.030;2023-03-04T01:01:11;101696.27;;;0.82;83.67
33949;BME280;20229;49.856;19.030;2023-03-04T01:06:25;101687.29;;;0.80;83.78
33949;BME280;20229;49.856;19.030;2023-03-04T01:11:39;101687.31;;;0.82;83.58
33949;BME280;20229;49.856;19.030;2023-03-04T01:16:53;101681.02;;;0.84;83.86
33949;BME280;20229;49.856;19.030;2023-03-04T01:22:07;101671.16;;;0.86;83.55
33949;BME280;20229;49.856;19.030;2023-03-04T01:27:20;101655.95;;;0.82;84.15
33949;BME280;20229;49.856;19.030;2023-03-04T01:32:34;101651.48;;;0.78;83.79
33949;BME280;20229;49.856;19.030;2023-03-04T01:37:48;101627.28;;;0.75;83.97
33949;BME280;20229;49.856;19.030;2023-03-04T01:43:02;101629.06;;;0.70;83.82
33949;BME280;20229;49.856;19.030;2023-03-04T01:48:23;101615.66;;;0.64;83.86
33949;BME280;20229;49.856;19.030;2023-03-04T01:53:38;101603.09;;;0.60;83.75
33949;BME280;20229;49.856;19.030;2023-03-04T02:04:46;101594.16;;;0.32;84.00
33949;BME280;20229;49.856;19.030;2023-03-04T02:10:00;101578.07;;;0.19;83.71
33949;BME280;20229;49.856;19.030;2023-03-04T02:15:14;101578.95;;;0.03;83.77
33949;BME280;20229;49.856;19.030;2023-03-04T02:20:41;101561.06;;;-0.06;83.82
33949;BME280;20229;49.856;19.030;2023-03-04T02:31:32;101546.72;;;-0.26;84.02
33949;BME280;20229;49.856;19.030;2023-03-04T02:36:47;101544.91;;;-0.36;83.94
33949;BME280;20229;49.856;19.030;2023-03-04T02:42:02;101533.26;;;-0.46;84.03
33949;BME280;20229;49.856;19.030;2023-03-04T02:47:17;101534.14;;;-0.58;84.38
33949;BME280;20229;49.856;19.030;2023-03-04T02:52:31;101534.11;;;-0.64;84.39
33949;BME280;20229;49.856;19.030;2023-03-04T02:57:45;101501.91;;;-0.76;84.31
33949;BME280;20229;49.856;19.030;2023-03-04T03:02:58;101507.24;;;-0.85;84.55
33949;BME280;20229;49.856;19.030;2023-03-04T03:08:12;101492.93;;;-0.98;84.62
33949;BME280;20229;49.856;19.030;2023-03-04T03:13:26;101485.72;;;-1.10;84.71
33949;BME280;20229;49.856;19.030;2023-03-04T03:18:41;101479.45;;;-1.23;84.83
33949;BME280;20229;49.856;19.030;2023-03-04T03:23:55;101475.81;;;-1.32;85.10
33949;BME280;20229;49.856;19.030;2023-03-04T03:29:08;101458.80;;;-1.47;85.40
33949;BME280;20229;49.856;19.030;2023-03-04T03:34:22;101456.05;;;-1.56;85.41
33949;BME280;20229;49.856;19.030;2023-03-04T03:39:36;101448.89;;;-1.64;85.49
33949;BME280;20229;49.856;19.030;2023-03-04T03:44:50;101447.04;;;-1.75;85.63
33949;BME280;20229;49.856;19.030;2023-03-04T03:50:05;101438.05;;;-1.84;85.69
33949;BME280;20229;49.856;19.030;2023-03-04T03:55:19;101443.38;;;-1.89;85.93
33949;BME280;20229;49.856;19.030;2023-03-04T04:00:33;101453.13;;;-1.99;86.42
33949;BME280;20229;49.856;19.030;2023-03-04T04:05:47;101444.16;;;-2.07;86.27
33949;BME280;20229;49.856;19.030;2023-03-04T04:11:01;101456.57;;;-2.18;86.39
33949;BME280;20229;49.856;19.030;2023-03-04T04:16:14;101460.05;;;-2.27;86.72
33949;BME280;20229;49.856;19.030;2023-03-04T04:21:28;101466.24;;;-2.35;87.19
33949;BME280;20229;49.856;19.030;2023-03-04T04:26:42;101459.05;;;-2.43;87.21
33949;BME280;20229;49.856;19.030;2023-03-04T04:31:56;101458.99;;;-2.50;87.40
33949;BME280;20229;49.856;19.030;2023-03-04T04:37:10;101460.70;;;-2.57;87.92
33949;BME280;20229;49.856;19.030;2023-03-04T04:42:24;101465.95;;;-2.66;87.57
33949;BME280;20229;49.856;19.030;2023-03-04T04:47:38;101476.60;;;-2.71;87.66
33949;BME280;20229;49.856;19.030;2023-03-04T04:52:52;101472.05;;;-2.79;87.96
33949;BME280;20229;49.856;19.030;2023-03-04T04:58:06;101489.86;;;-2.81;87.59
33949;BME280;20229;49.856;19.030;2023-03-04T05:03:20;101489.79;;;-2.87;87.85
33949;BME280;20229;49.856;19.030;2023-03-04T05:08:34;101493.30;;;-2.92;87.79
33949;BME280;20229;49.856;19.030;2023-03-04T05:13:48;101490.55;;;-2.98;87.76
33949;BME280;20229;49.856;19.030;2023-03-04T05:19:02;101498.48;;;-3.05;87.97
33949;BME280;20229;49.856;19.030;2023-03-04T05:24:16;101492.17;;;-3.14;88.18
33949;BME280;20229;49.856;19.030;2023-03-04T05:29:30;101495.69;;;-3.15;88.66
33949;BME280;20229;49.856;19.030;2023-03-04T05:34:44;101508.23;;;-3.10;89.03
33949;BME280;20229;49.856;19.030;2023-03-04T05:39:57;101503.95;;;-2.95;89.50
33949;BME280;20229;49.856;19.030;2023-03-04T05:45:11;101505.04;;;-2.77;89.40
33949;BME280;20229;49.856;19.030;2023-03-04T05:50:25;101504.37;;;-2.58;90.19
33949;BME280;20229;49.856;19.030;2023-03-04T05:55:39;101513.45;;;-2.37;91.21
33949;BME280;20229;49.856;19.030;2023-03-04T06:00:53;101510.96;;;-2.16;91.15
33949;BME280;20229;49.856;19.030;2023-03-04T06:06:07;101525.37;;;-1.99;91.01
33949;BME280;20229;49.856;19.030;2023-03-04T06:11:20;101525.53;;;-1.77;90.70
33949;BME280;20229;49.856;19.030;2023-03-04T06:16:34;101522.98;;;-1.62;90.26
33949;BME280;20229;49.856;19.030;2023-03-04T06:21:48;101512.36;;;-1.48;90.67
33949;BME280;20229;49.856;19.030;2023-03-04T06:27:02;101519.55;;;-1.35;90.05
33949;BME280;20229;49.856;19.030;2023-03-04T06:32:16;101519.60;;;-1.24;91.28
33949;BME280;20229;49.856;19.030;2023-03-04T06:37:30;101524.13;;;-1.11;90.27
33949;BME280;20229;49.856;19.030;2023-03-04T06:42:43;101526.88;;;-0.99;90.60
33949;BME280;20229;49.856;19.030;2023-03-04T06:47:57;101526.89;;;-0.89;90.72
33949;BME280;20229;49.856;19.030;2023-03-04T06:53:11;101532.28;;;-0.83;90.89
33949;BME280;20229;49.856;19.030;2023-03-04T06:58:25;101518.01;;;-0.75;90.31
33949;BME280;20229;49.856;19.030;2023-03-04T07:03:39;101514.49;;;-0.60;89.90
33949;BME280;20229;49.856;19.030;2023-03-04T07:08:53;101512.71;;;-0.49;89.26
33949;BME280;20229;49.856;19.030;2023-03-04T07:14:07;101508.24;;;-0.36;89.37
33949;BME280;20229;49.856;19.030;2023-03-04T07:19:21;101508.27;;;-0.23;89.01
33949;BME280;20229;49.856;19.030;2023-03-04T07:24:35;101495.74;;;-0.15;88.10
33949;BME280;20229;49.856;19.030;2023-03-04T07:29:49;101501.10;;;-0.05;88.28
33949;BME280;20229;49.856;19.030;2023-03-04T07:35:03;101510.08;;;0.04;87.72
33949;BME280;20229;49.856;19.030;2023-03-04T07:40:17;101512.73;;;0.13;87.46
33949;BME280;20229;49.856;19.030;2023-03-04T07:45:31;101507.35;;;0.23;86.37
33949;BME280;20229;49.856;19.030;2023-03-04T07:50:45;101510.03;;;0.30;86.08
33949;BME280;20229;49.856;19.030;2023-03-04T07:55:58;101509.13;;;0.37;86.14
33949;BME280;20229;49.856;19.030;2023-03-04T08:01:18;101510.88;;;0.48;85.27
33949;BME280;20229;49.856;19.030;2023-03-04T08:06:33;101526.10;;;0.51;85.35
33949;BME280;20229;49.856;19.030;2023-03-04T08:11:47;101534.14;;;0.59;85.23
33949;BME280;20229;49.856;19.030;2023-03-04T08:17:00;101535.01;;;0.67;84.73
33949;BME280;20229;49.856;19.030;2023-03-04T08:22:14;101527.83;;;0.77;84.05
33949;BME280;20229;49.856;19.030;2023-03-04T08:27:29;101537.63;;;0.91;83.61
33949;BME280;20229;49.856;19.030;2023-03-04T08:32:42;101554.63;;;0.98;82.83
33949;BME280;20229;49.856;19.030;2023-03-04T08:37:56;101541.19;;;1.03;82.82
33949;BME280;20229;49.856;19.030;2023-03-04T08:43:10;101553.74;;;1.01;82.19
33949;BME280;20229;49.856;19.030;2023-03-04T08:48:24;101560.89;;;1.02;82.44
33949;BME280;20229;49.856;19.030;2023-03-04T08:53:38;101570.76;;;0.98;82.76
33949;BME280;20229;49.856;19.030;2023-03-04T08:58:52;101577.04;;;0.99;82.91
33949;BME280;20229;49.856;19.030;2023-03-04T09:04:06;101591.38;;;0.98;83.28
33949;BME280;20229;49.856;19.030;2023-03-04T09:09:19;101586.88;;;1.01;82.73
33949;BME280;20229;49.856;19.030;2023-03-04T09:14:34;101581.46;;;1.18;82.93
33949;BME280;20229;49.856;19.030;2023-03-04T09:19:48;101595.61;;;1.58;82.12
33949;BME280;20229;49.856;19.030;2023-03-04T09:25:02;101603.57;;;1.81;80.87
33949;BME280;20229;49.856;19.030;2023-03-04T09:30:22;101596.29;;;1.96;79.88
33949;BME280;20229;49.856;19.030;2023-03-04T09:35:48;101599.80;;;2.07;79.52
33949;BME280;20229;49.856;19.030;2023-03-04T09:41:05;101598.67;;;2.37;79.26
33949;BME280;20229;49.856;19.030;2023-03-04T09:46:31;101595.58;;;2.78;77.73
33949;BME280;20229;49.856;19.030;2023-03-04T09:52:09;101582.19;;;2.72;76.39
33949;BME280;20229;49.856;19.030;2023-03-04T10:02:55;101555.27;;;2.66;76.37
33949;BME280;20229;49.856;19.030;2023-03-04T10:24:56;101539.27;;;2.49;76.26
33949;BME280;20229;49.856;19.030;2023-03-04T10:30:39;101532.81;;;2.64;75.39
33949;BME280;20229;49.856;19.030;2023-03-04T10:35:35;101523.65;;;2.79;75.51
33949;BME280;20229;49.856;19.030;2023-03-04T10:40:50;101527.19;;;2.87;75.30
33949;BME280;20229;49.856;19.030;2023-03-04T10:46:04;101521.63;;;2.99;74.45
33949;BME280;20229;49.856;19.030;2023-03-04T10:51:20;101507.12;;;3.11;73.55
33949;BME280;20229;49.856;19.030;2023-03-04T10:56:38;101507.93;;;3.16;74.06
33949;BME280;20229;49.856;19.030;2023-03-04T11:01:53;101492.48;;;3.29;73.88
33949;BME280;20229;49.856;19.030;2023-03-04T11:07:10;101494.14;;;3.38;73.92
33949;BME280;20229;49.856;19.030;2023-03-04T11:12:32;101486.77;;;3.50;74.01
33949;BME280;20229;49.856;19.030;2023-03-04T11:17:50;101475.94;;;3.52;71.86
33949;BME280;20229;49.856;19.030;2023-03-04T11:23:10;101474.13;;;3.54;72.72
33949;BME280;20229;49.856;19.030;2023-03-04T11:28:55;101465.00;;;3.61;71.67
33949;BME280;20229;49.856;19.030;2023-03-04T11:45:14;101446.73;;;3.78;72.20
33949;BME280;20229;49.856;19.030;2023-03-04T12:01:38;101425.59;;;4.03;71.33
33949;BME280;20229;49.856;19.030;2023-03-04T12:12:34;101420.18;;;4.03;70.65
33949;BME280;20229;49.856;19.030;2023-03-04T12:17:57;101411.20;;;4.01;70.35
33949;BME280;20229;49.856;19.030;2023-03-04T12:23:21;101407.41;;;4.12;70.65
33949;BME280;20229;49.856;19.030;2023-03-04T12:34:42;101395.62;;;4.16;69.81
33949;BME280;20229;49.856;19.030;2023-03-04T12:40:05;101388.34;;;4.19;70.17
33949;BME280;20229;49.856;19.030;2023-03-04T12:45:26;101373.79;;;4.26;69.93
33949;BME280;20229;49.856;19.030;2023-03-04T12:56:20;101365.51;;;4.36;70.36
33949;BME280;20229;49.856;19.030;2023-03-04T13:01:42;101376.11;;;4.45;69.53
33949;BME280;20229;49.856;19.030;2023-03-04T13:07:07;101363.30;;;4.54;69.84
33949;BME280;20229;49.856;19.030;2023-03-04T13:12:23;101362.14;;;4.66;69.21
33949;BME280;20229;49.856;19.030;2023-03-04T13:28:29;101335.37;;;4.94;67.70
33949;BME280;20229;49.856;19.030;2023-03-04T13:33:47;101333.47;;;4.98;67.31
33949;BME280;20229;49.856;19.030;2023-03-04T13:39:21;101309.55;;;4.79;67.62
33949;BME280;20229;49.856;19.030;2023-03-04T13:55:45;101326.68;;;4.40;67.20
33949;BME280;20229;49.856;19.030;2023-03-04T14:01:04;101324.08;;;4.35;68.39
33949;BME280;20229;49.856;19.030;2023-03-04T14:06:25;101321.55;;;4.26;67.54
33949;BME280;20229;49.856;19.030;2023-03-04T14:11:40;101324.31;;;4.23;67.95
33949;BME280;20229;49.856;19.030;2023-03-04T14:17:03;101323.43;;;4.22;68.22
33949;BME280;20229;49.856;19.030;2023-03-04T14:22:20;101324.35;;;4.21;68.11
33949;BME280;20229;49.856;19.030;2023-03-04T14:27:35;101321.82;;;4.14;67.80
33949;BME280;20229;49.856;19.030;2023-03-04T14:32:51;101327.23;;;4.12;68.61
33949;BME280;20229;49.856;19.030;2023-03-04T14:38:14;101325.58;;;4.05;68.16
33949;BME280;20229;49.856;19.030;2023-03-04T14:43:28;101334.62;;;4.02;67.91
33949;BME280;20229;49.856;19.030;2023-03-04T14:48:49;101319.45;;;3.95;68.04
33949;BME280;20229;49.856;19.030;2023-03-04T14:54:03;101324.95;;;3.92;68.00
33949;BME280;20229;49.856;19.030;2023-03-04T15:04:45;101322.36;;;3.84;68.13
33949;BME280;20229;49.856;19.030;2023-03-04T15:10:02;101324.27;;;3.79;68.09
33949;BME280;20229;49.856;19.030;2023-03-04T15:20:55;101313.52;;;3.76;68.46
33949;BME280;20229;49.856;19.030;2023-03-04T15:26:39;101309.11;;;3.71;68.62
33949;BME280;20229;49.856;19.030;2023-03-04T15:31:54;101303.70;;;3.72;68.91
33949;BME280;20229;49.856;19.030;2023-03-04T15:37:14;101303.81;;;3.66;68.61
33949;BME280;20229;49.856;19.030;2023-03-04T15:42:30;101309.20;;;3.68;68.45
33949;BME280;20229;49.856;19.030;2023-03-04T15:47:44;101293.94;;;3.65;68.90
33949;BME280;20229;49.856;19.030;2023-03-04T15:53:00;101291.20;;;3.67;68.66
33949;BME280;20229;49.856;19.030;2023-03-04T15:58:15;101288.54;;;3.65;68.65
33949;BME280;20229;49.856;19.030;2023-03-04T16:03:29;101291.24;;;3.65;68.74
33949;BME280;20229;49.856;19.030;2023-03-04T16:08:43;101284.96;;;3.63;68.60
33949;BME280;20229;49.856;19.030;2023-03-04T16:13:57;101283.20;;;3.62;68.67
33949;BME280;20229;49.856;19.030;2023-03-04T16:19:11;101290.41;;;3.60;69.03
33949;BME280;20229;49.856;19.030;2023-03-04T16:24:26;101283.23;;;3.61;69.16
33949;BME280;20229;49.856;19.030;2023-03-04T16:29:43;101281.42;;;3.61;68.86
33949;BME280;20229;49.856;19.030;2023-03-04T16:34:57;101273.34;;;3.59;68.75
33949;BME280;20229;49.856;19.030;2023-03-04T16:40:16;101281.47;;;3.58;68.90
33949;BME280;20229;49.856;19.030;2023-03-04T16:45:31;101293.16;;;3.58;68.47
33949;BME280;20229;49.856;19.030;2023-03-04T16:50:48;101285.10;;;3.57;68.85
33949;BME280;20229;49.856;19.030;2023-03-04T16:56:05;101281.47;;;3.58;68.92
33949;BME280;20229;49.856;19.030;2023-03-04T17:01:25;101272.45;;;3.59;68.96
33949;BME280;20229;49.856;19.030;2023-03-04T17:06:40;101281.43;;;3.59;69.06
33949;BME280;20229;49.856;19.030;2023-03-04T17:11:53;101287.77;;;3.58;68.96
33949;BME280;20229;49.856;19.030;2023-03-04T17:17:09;101298.52;;;3.60;69.04
33949;BME280;20229;49.856;19.030;2023-03-04T17:22:23;101304.84;;;3.59;69.22
33949;BME280;20229;49.856;19.030;2023-03-04T17:27:37;101309.31;;;3.60;69.23
33949;BME280;20229;49.856;19.030;2023-03-04T17:32:51;101303.03;;;3.61;68.78
33949;BME280;20229;49.856;19.030;2023-03-04T17:38:05;101301.16;;;3.63;69.55
33949;BME280;20229;49.856;19.030;2023-03-04T17:43:19;101298.45;;;3.63;69.38
33949;BME280;20229;49.856;19.030;2023-03-04T17:48:33;101316.46;;;3.64;69.38
33949;BME280;20229;49.856;19.030;2023-03-04T17:53:47;101310.14;;;3.65;69.32
33949;BME280;20229;49.856;19.030;2023-03-04T17:59:05;101304.69;;;3.68;69.49
33949;BME280;20229;49.856;19.030;2023-03-04T18:04:18;101309.16;;;3.69;69.48
33949;BME280;20229;49.856;19.030;2023-03-04T18:09:32;101300.12;;;3.70;69.29
33949;BME280;20229;49.856;19.030;2023-03-04T18:14:46;101301.93;;;3.71;69.30
33949;BME280;20229;49.856;19.030;2023-03-04T18:20:00;101302.77;;;3.73;69.47
33949;BME280;20229;49.856;19.030;2023-03-04T18:25:14;101302.77;;;3.73;69.41
33949;BME280;20229;49.856;19.030;2023-03-04T18:30:29;101313.58;;;3.73;69.61
33949;BME280;20229;49.856;19.030;2023-03-04T18:35:43;101301.01;;;3.71;69.98
33949;BME280;20229;49.856;19.030;2023-03-04T18:40:58;101296.49;;;3.73;69.92
33949;BME280;20229;49.856;19.030;2023-03-04T18:46:25;101296.54;;;3.71;70.13
33949;BME280;20229;49.856;19.030;2023-03-04T18:52:07;101303.03;;;3.61;70.47
33949;BME280;20229;49.856;19.030;2023-03-04T18:57:21;101298.37;;;3.69;70.57
33949;BME280;20229;49.856;19.030;2023-03-04T19:02:40;101310.14;;;3.65;70.98
33949;BME280;20229;49.856;19.030;2023-03-04T19:07:55;101302.88;;;3.67;70.82
33949;BME280;20229;49.856;19.030;2023-03-04T19:13:08;101303.84;;;3.65;71.05
33949;BME280;20229;49.856;19.030;2023-03-04T19:18:22;101301.10;;;3.66;71.04
33949;BME280;20229;49.856;19.030;2023-03-04T19:23:36;101296.70;;;3.62;71.11
33949;BME280;20229;49.856;19.030;2023-03-04T19:28:50;101304.78;;;3.62;71.36
33949;BME280;20229;49.856;19.030;2023-03-04T19:34:04;101311.13;;;3.59;71.58
33949;BME280;20229;49.856;19.030;2023-03-04T19:39:18;101311.13;;;3.61;71.82
33949;BME280;20229;49.856;19.030;2023-03-04T19:44:32;101306.70;;;3.57;72.15
33949;BME280;20229;49.856;19.030;2023-03-04T19:49:45;101310.23;;;3.59;72.26
33949;BME280;20229;49.856;19.030;2023-03-04T19:54:59;101321.09;;;3.56;72.61
33949;BME280;20229;49.856;19.030;2023-03-04T20:00:13;101323.79;;;3.57;72.32
33949;BME280;20229;49.856;19.030;2023-03-04T20:05:27;101331.05;;;3.54;72.54
33949;BME280;20229;49.856;19.030;2023-03-04T20:10:41;101321.09;;;3.56;72.79
33949;BME280;20229;49.856;19.030;2023-03-04T20:15:55;101328.34;;;3.54;73.08
33949;BME280;20229;49.856;19.030;2023-03-04T20:21:10;101324.71;;;3.55;73.29
33949;BME280;20229;49.856;19.030;2023-03-04T20:26:24;101325.66;;;3.52;74.00
33949;BME280;20229;49.856;19.030;2023-03-04T20:31:38;101325.66;;;3.52;74.08
33949;BME280;20229;49.856;19.030;2023-03-04T20:36:51;101315.84;;;3.48;74.11
33949;BME280;20229;49.856;19.030;2023-03-04T20:42:05;101306.80;;;3.51;75.52
33949;BME280;20229;49.856;19.030;2023-03-04T20:47:19;101314.02;;;3.50;74.77
33949;BME280;20229;49.856;19.030;2023-03-04T20:52:33;101322.95;;;3.54;75.31
33949;BME280;20229;49.856;19.030;2023-03-04T20:57:46;101315.84;;;3.48;76.31
33949;BME280;20229;49.856;19.030;2023-03-04T21:03:02;101318.68;;;3.41;76.80
33949;BME280;20229;49.856;19.030;2023-03-04T21:08:15;101311.64;;;3.30;78.36
33949;BME280;20229;49.856;19.030;2023-03-04T21:13:29;101305.45;;;3.25;78.98
33949;BME280;20229;49.856;19.030;2023-03-04T21:18:44;101294.80;;;3.16;80.17
33949;BME280;20229;49.856;19.030;2023-03-04T21:23:58;101291.30;;;3.11;80.94
33949;BME280;20229;49.856;19.030;2023-03-04T21:29:21;101296.70;;;3.11;80.40
33949;BME280;20229;49.856;19.030;2023-03-04T21:34:38;101284.10;;;3.10;80.43
33949;BME280;20229;49.856;19.030;2023-03-04T21:39:53;101278.75;;;3.07;80.14
33949;BME280;20229;49.856;19.030;2023-03-04T21:45:09;101272.47;;;3.06;79.95
33949;BME280;20229;49.856;19.030;2023-03-04T21:50:23;101270.71;;;3.04;80.44
33949;BME280;20229;49.856;19.030;2023-03-04T21:55:40;101273.40;;;3.04;79.93
33949;BME280;20229;49.856;19.030;2023-03-04T22:00:54;101276.15;;;3.02;80.19
33949;BME280;20229;49.856;19.030;2023-03-04T22:06:11;101278.79;;;3.04;80.27
33949;BME280;20229;49.856;19.030;2023-03-04T22:11:26;101276.10;;;3.04;80.15
33949;BME280;20229;49.856;19.030;2023-03-04T22:16:40;101269.77;;;3.08;79.92
33949;BME280;20229;49.856;19.030;2023-03-04T22:21:56;101269.77;;;3.08;79.71
33949;BME280;20229;49.856;19.030;2023-03-04T22:27:11;101264.41;;;3.05;79.41
33949;BME280;20229;49.856;19.030;2023-03-04T22:32:24;101255.45;;;3.03;79.80
33949;BME280;20229;49.856;19.030;2023-03-04T22:37:38;101255.45;;;3.03;80.05
33949;BME280;20229;49.856;19.030;2023-03-04T22:42:52;101252.75;;;3.03;80.39
33949;BME280;20229;49.856;19.030;2023-03-04T22:48:06;101254.61;;;3.01;80.25
33949;BME280;20229;49.856;19.030;2023-03-04T22:53:19;101244.70;;;3.00;80.11
33949;BME280;20229;49.856;19.030;2023-03-04T22:58:33;101255.48;;;3.01;80.03
33949;BME280;20229;49.856;19.030;2023-03-04T23:03:48;101253.64;;;3.03;80.01
33949;BME280;20229;49.856;19.030;2023-03-04T23:09:02;101259.95;;;3.02;80.37
33949;BME280;20229;49.856;19.030;2023-03-04T23:14:16;101252.80;;;3.00;80.60
33949;BME280;20229;49.856;19.030;2023-03-04T23:19:30;101256.37;;;3.02;80.67
33949;BME280;20229;49.856;19.030;2023-03-04T23:24:45;101258.14;;;3.03;80.99
33949;BME280;20229;49.856;19.030;2023-03-04T23:29:59;101264.41;;;3.05;80.88
33949;BME280;20229;49.856;19.030;2023-03-04T23:35:13;101280.59;;;3.05;80.66
33949;BME280;20229;49.856;19.030;2023-03-04T23:40:27;101290.50;;;3.03;81.06
33949;BME280;20229;49.856;19.030;2023-03-04T23:45:42;101284.36;;;2.95;80.63
33949;BME280;20229;49.856;19.030;2023-03-04T23:50:56;101287.18;;;2.85;80.71
33949;BME280;20229;49.856;19.030;2023-03-04T23:56:19;101303.45;;;2.81;80.64
